HKNW/WIL METAR and TAF weather

Enter ICAO airport designator
Station Type Date Time Source
HKNW METAR 2024/06/14 20:00 UTC NOAA

HKNW 142000Z 00000KT 9999 BKN020 19/14 Q1023


Station Type Date Time Source
HKNW Decoded METAR 2024/06/14 20:00 UTC NOAA

Nairobi / Wilson, Kenya (HKNW) 01-19S 036-49E 1679M
Jun 14, 2024 - 04:00 PM EDT / 2024.06.14 2000 UTC
Wind: Calm:0
Visibility: greater than 7 mile(s):0
Sky conditions: mostly cloudy
Temperature: 66 F (19 C)
Dew Point: 57 F (14 C)
Relative Humidity: 72%
Pressure (altimeter): 30.21 in. Hg (1023 hPa)
ob: HKNW 142000Z 00000KT 9999 BKN020 19/14 Q1023
cycle: 20

Station Type Date Time Source
HKNW TAF 2024/06/14 18:33 UTC NOAA